Time;durP1;ratioP1;P1;durP2;ratioP2;P2;SDS_P1;SDS_P2;PMS_P1;PMS_P2;Temp;Humidity;BMP_temperature;BMP_pressure;BME280_temperature;BME280_humidity;BME280_pressure;Samples;Min_cycle;Max_cycle;Signal;HPM_P1;HPM_P2
2022/07/18 00:01:35;;;;;;;4.47;2.80;;;;;;;;;;4993790;28;20031;-69
2022/07/18 00:04:02;;;;;;;6.93;2.72;;;;;;;;;;4993690;28;20053;-70
2022/07/18 00:06:28;;;;;;;3.97;2.78;;;;;;;;;;4993903;28;20030;-70
2022/07/18 00:08:54;;;;;;;3.25;2.92;;;;;;;;;;4993829;28;20546;-70
2022/07/18 00:11:20;;;;;;;3.20;2.60;;;;;;;;;;4993741;28;20524;-70
2022/07/18 00:13:46;;;;;;;3.75;2.70;;;;;;;;;;4993802;28;20077;-70
2022/07/18 00:16:12;;;;;;;6.72;2.72;;;;;;;;;;4994042;28;20473;-70
2022/07/18 00:18:38;;;;;;;3.85;2.80;;;;;;;;;;4993745;28;20023;-70
2022/07/18 00:21:05;;;;;;;4.35;3.03;;;;;;;;;;4993702;28;20030;-70
2022/07/18 00:23:31;;;;;;;5.18;3.00;;;;;;;;;;4994291;28;20023;-70
2022/07/18 00:25:57;;;;;;;4.85;2.58;;;;;;;;;;4993739;28;20146;-70
2022/07/18 00:28:23;;;;;;;3.95;2.80;;;;;;;;;;4993972;28;20023;-69
2022/07/18 00:30:49;;;;;;;5.78;3.20;;;;;;;;;;4994077;28;20085;-70
2022/07/18 00:33:15;;;;;;;4.45;2.78;;;;;;;;;;4976157;28;20022;-70
2022/07/18 00:35:41;;;;;;;5.43;3.25;;;;;;;;;;4993826;28;20487;-70
2022/07/18 00:38:07;;;;;;;4.05;3.20;;;;;;;;;;4993588;28;20097;-70
2022/07/18 00:40:33;;;;;;;5.80;3.03;;;;;;;;;;4993542;28;20034;-70
2022/07/18 00:42:59;;;;;;;3.88;2.83;;;;;;;;;;4993511;28;20081;-70
2022/07/18 00:45:26;;;;;;;4.93;3.05;;;;;;;;;;4993786;28;20026;-69
2022/07/18 00:47:52;;;;;;;7.65;3.30;;;;;;;;;;4994074;28;20034;-70
2022/07/18 00:50:22;;;;;;;4.72;3.00;;;;;;;;;;4993419;28;20038;-70
2022/07/18 00:52:48;;;;;;;5.60;3.50;;;;;;;;;;4993755;28;20023;-70
2022/07/18 00:55:14;;;;;;;5.72;3.47;;;;;;;;;;4993706;28;20027;-70
2022/07/18 00:57:41;;;;;;;4.47;2.97;;;;;;;;;;4993994;28;20033;-70
2022/07/18 01:02:53;;;;;;;6.25;3.28;;;;;;;;;;4993225;28;20081;-70
2022/07/18 01:05:20;;;;;;;4.65;3.35;;;;;;;;;;4993308;28;20062;-70
2022/07/18 01:07:46;;;;;;;4.93;3.10;;;;;;;;;;4978801;28;20099;-70
2022/07/18 01:10:12;;;;;;;4.97;3.20;;;;;;;;;;4996986;28;20497;-70
2022/07/18 01:12:38;;;;;;;4.93;3.38;;;;;;;;;;4996930;28;20523;-70
2022/07/18 01:15:05;;;;;;;5.47;3.60;;;;;;;;;;4996926;28;20106;-70
2022/07/18 01:17:31;;;;;;;8.32;3.90;;;;;;;;;;4996849;28;20030;-70
2022/07/18 01:19:57;;;;;;;3.83;2.90;;;;;;;;;;4996767;28;20428;-70
2022/07/18 01:22:23;;;;;;;5.10;3.25;;;;;;;;;;4996672;28;20018;-70
2022/07/18 01:24:49;;;;;;;5.38;3.50;;;;;;;;;;4996671;28;20480;-70
2022/07/18 01:27:16;;;;;;;4.32;3.22;;;;;;;;;;4996612;28;20069;-70
2022/07/18 01:29:43;;;;;;;5.97;3.35;;;;;;;;;;4997157;28;20073;-70
2022/07/18 01:32:09;;;;;;;4.75;3.33;;;;;;;;;;4996514;28;20037;-70
2022/07/18 01:34:36;;;;;;;4.55;3.15;;;;;;;;;;4996588;28;20026;-70
2022/07/18 01:37:02;;;;;;;6.15;3.10;;;;;;;;;;4996484;28;20102;-70
2022/07/18 01:39:28;;;;;;;3.63;3.00;;;;;;;;;;4996747;28;20457;-70
2022/07/18 01:41:58;;;;;;;4.95;3.30;;;;;;;;;;4996362;28;20427;-69
2022/07/18 01:44:24;;;;;;;;;;;;;;;;;;4996794;28;20038;-70
2022/07/18 01:46:51;;;;;;;6.03;3.20;;;;;;;;;;4996599;28;19906;-69
2022/07/18 01:49:17;;;;;;;5.80;3.03;;;;;;;;;;4996298;28;20026;-70
2022/07/18 01:51:50;;;;;;;8.30;4.18;;;;;;;;;;4996138;28;20034;-70
2022/07/18 01:54:16;;;;;;;8.25;4.85;;;;;;;;;;4996460;28;20029;-70
2022/07/18 01:56:42;;;;;;;6.78;3.72;;;;;;;;;;4996169;28;20029;-70
2022/07/18 01:59:08;;;;;;;4.80;3.55;;;;;;;;;;4996407;28;20018;-69
2022/07/18 02:01:34;;;;;;;4.53;3.30;;;;;;;;;;4978539;28;20468;-70
2022/07/18 02:04:00;;;;;;;6.88;3.20;;;;;;;;;;4995841;28;20042;-70
2022/07/18 02:06:26;;;;;;;6.88;3.72;;;;;;;;;;4996203;28;20030;-70
2022/07/18 02:08:52;;;;;;;6.53;3.30;;;;;;;;;;4995887;28;20543;-69
2022/07/18 02:11:18;;;;;;;4.63;3.00;;;;;;;;;;4995800;28;20022;-70
2022/07/18 02:13:44;;;;;;;6.95;3.10;;;;;;;;;;4996043;28;20381;-69
2022/07/18 02:16:10;;;;;;;5.13;3.20;;;;;;;;;;4995737;28;20026;-69
2022/07/18 02:18:36;;;;;;;5.85;3.08;;;;;;;;;;4994993;28;20025;-70
2022/07/18 02:21:02;;;;;;;7.65;3.75;;;;;;;;;;4995998;28;20030;-70
2022/07/18 02:23:29;;;;;;;7.15;3.38;;;;;;;;;;4995951;28;20495;-70
2022/07/18 02:25:55;;;;;;;5.18;3.25;;;;;;;;;;4995611;28;20027;-70
2022/07/18 02:28:21;;;;;;;4.72;3.28;;;;;;;;;;4995785;28;20488;-70
2022/07/18 02:30:48;;;;;;;10.52;4.00;;;;;;;;;;4996276;28;20149;-70
2022/07/18 02:33:14;;;;;;;9.25;4.10;;;;;;;;;;4995491;28;20026;-70
2022/07/18 02:35:40;;;;;;;4.70;3.50;;;;;;;;;;4995425;28;20054;-70
2022/07/18 02:38:06;;;;;;;5.57;3.60;;;;;;;;;;4995369;28;20030;-70
2022/07/18 02:40:32;;;;;;;5.68;3.45;;;;;;;;;;4995325;28;20108;-70
2022/07/18 02:42:58;;;;;;;4.68;3.33;;;;;;;;;;4995252;28;20037;-69
2022/07/18 02:45:25;;;;;;;6.80;3.50;;;;;;;;;;4995495;28;20353;-69
2022/07/18 02:47:51;;;;;;;4.32;2.97;;;;;;;;;;4995161;28;20030;-69
2022/07/18 02:50:17;;;;;;;5.57;3.70;;;;;;;;;;4995074;28;20030;-70
2022/07/18 02:52:43;;;;;;;4.63;3.70;;;;;;;;;;4995325;28;20121;-70
2022/07/18 02:55:10;;;;;;;5.72;3.47;;;;;;;;;;4995279;28;20559;-69
2022/07/18 02:57:36;;;;;;;6.03;3.65;;;;;;;;;;4994975;28;20029;-70
2022/07/18 03:00:03;;;;;;;4.88;3.45;;;;;;;;;;4995234;28;20019;-70
2022/07/18 03:02:29;;;;;;;5.00;3.55;;;;;;;;;;4994696;28;20531;-69
2022/07/18 03:04:55;;;;;;;7.53;3.30;;;;;;;;;;4994864;28;20484;-69
2022/07/18 03:07:21;;;;;;;6.75;3.85;;;;;;;;;;4994802;28;20029;-70
2022/07/18 03:09:47;;;;;;;6.03;3.70;;;;;;;;;;4994993;28;20031;-70
2022/07/18 03:12:13;;;;;;;5.55;3.85;;;;;;;;;;4994887;28;20366;-70
2022/07/18 03:14:40;;;;;;;5.70;3.60;;;;;;;;;;4977256;28;20052;-70
2022/07/18 03:17:06;;;;;;;4.63;3.47;;;;;;;;;;4994923;28;20077;-69
2022/07/18 03:19:32;;;;;;;6.68;3.75;;;;;;;;;;4994868;28;20089;-70
2022/07/18 03:21:58;;;;;;;4.05;3.40;;;;;;;;;;4994782;28;20080;-70
2022/07/18 03:24:24;;;;;;;5.15;3.60;;;;;;;;;;4995057;28;20037;-70
2022/07/18 03:26:50;;;;;;;7.45;3.58;;;;;;;;;;4994715;28;20033;-70
2022/07/18 03:29:16;;;;;;;4.32;3.70;;;;;;;;;;4994896;28;20037;-70
2022/07/18 03:31:42;;;;;;;8.40;3.67;;;;;;;;;;4994809;28;20023;-70
2022/07/18 03:34:08;;;;;;;5.10;3.33;;;;;;;;;;4994593;28;20030;-69
2022/07/18 03:36:34;;;;;;;5.45;3.33;;;;;;;;;;4994243;28;20484;-69
2022/07/18 03:39:01;;;;;;;5.72;3.42;;;;;;;;;;4994235;28;20101;-70
2022/07/18 03:41:27;;;;;;;5.07;3.65;;;;;;;;;;4994220;28;20033;-70
2022/07/18 03:43:53;;;;;;;4.03;3.25;;;;;;;;;;4994680;28;20160;-70
2022/07/18 03:46:19;;;;;;;4.55;3.60;;;;;;;;;;4994162;28;20030;-70
2022/07/18 03:48:45;;;;;;;4.50;3.28;;;;;;;;;;4994118;28;20504;-70
2022/07/18 03:51:11;;;;;;;5.03;3.53;;;;;;;;;;4993971;28;20108;-69
2022/07/18 03:53:37;;;;;;;4.13;3.10;;;;;;;;;;4994050;28;20109;-69
2022/07/18 03:56:03;;;;;;;5.50;3.20;;;;;;;;;;4994266;28;20046;-70
2022/07/18 03:58:29;;;;;;;5.07;3.40;;;;;;;;;;4976524;28;20034;-70
2022/07/18 04:00:55;;;;;;;6.93;3.60;;;;;;;;;;4993856;28;20109;-70
2022/07/18 04:03:21;;;;;;;5.90;3.30;;;;;;;;;;4976304;28;20133;-69
2022/07/18 04:05:47;;;;;;;6.20;3.72;;;;;;;;;;4994187;28;20022;-69
2022/07/18 04:08:13;;;;;;;4.90;3.13;;;;;;;;;;4993854;28;20033;-70
2022/07/18 04:10:39;;;;;;;7.53;3.55;;;;;;;;;;4994319;28;20052;-69
2022/07/18 04:13:06;;;;;;;6.53;3.58;;;;;;;;;;4993834;28;20077;-70
2022/07/18 04:15:32;;;;;;;5.00;3.30;;;;;;;;;;4994026;28;20049;-70
2022/07/18 04:17:58;;;;;;;5.78;3.90;;;;;;;;;;4993786;28;20065;-69
2022/07/18 04:20:24;;;;;;;4.13;3.50;;;;;;;;;;4994064;28;20054;-70
2022/07/18 04:22:51;;;;;;;5.18;3.78;;;;;;;;;;4993713;28;20033;-69
2022/07/18 04:25:18;;;;;;;4.82;3.47;;;;;;;;;;4976270;28;20440;-70
2022/07/18 04:27:45;;;;;;;5.90;3.85;;;;;;;;;;4993724;28;20494;-70
2022/07/18 04:30:11;;;;;;;4.82;3.50;;;;;;;;;;4994101;28;20027;-70
2022/07/18 04:32:38;;;;;;;5.63;3.42;;;;;;;;;;4993676;28;20491;-70
2022/07/18 04:35:04;;;;;;;4.40;3.45;;;;;;;;;;4993599;28;20033;-69
2022/07/18 04:37:31;;;;;;;5.82;3.75;;;;;;;;;;4994105;28;20491;-70
2022/07/18 04:39:57;;;;;;;4.15;3.15;;;;;;;;;;4993573;28;20018;-70
2022/07/18 04:42:23;;;;;;;4.82;3.00;;;;;;;;;;4996370;28;20110;-70
2022/07/18 04:44:49;;;;;;;8.15;3.95;;;;;;;;;;4997710;28;20058;-70
2022/07/18 04:47:15;;;;;;;5.90;3.65;;;;;;;;;;4997735;28;20085;-69
2022/07/18 04:49:41;;;;;;;4.30;3.42;;;;;;;;;;4997593;28;20026;-70
2022/07/18 04:52:07;;;;;;;3.78;3.13;;;;;;;;;;4997258;28;20061;-69
2022/07/18 04:54:33;;;;;;;6.93;3.85;;;;;;;;;;4979825;28;20019;-70
2022/07/18 04:56:59;;;;;;;4.43;3.50;;;;;;;;;;4997179;28;20030;-70
2022/07/18 04:59:25;;;;;;;5.22;3.83;;;;;;;;;;4997169;28;20023;-70
2022/07/18 05:01:51;;;;;;;5.35;3.90;;;;;;;;;;4997095;28;20522;-70
2022/07/18 05:04:17;;;;;;;9.70;4.03;;;;;;;;;;4996897;28;20129;-70
2022/07/18 05:06:43;;;;;;;5.07;3.88;;;;;;;;;;4997058;28;20073;-69
2022/07/18 05:09:09;;;;;;;5.45;3.42;;;;;;;;;;4997287;28;20053;-69
2022/07/18 05:11:35;;;;;;;5.57;3.60;;;;;;;;;;4979413;28;20027;-70
2022/07/18 05:14:01;;;;;;;5.40;3.63;;;;;;;;;;4996945;28;20023;-70
2022/07/18 05:16:28;;;;;;;6.97;4.10;;;;;;;;;;4997149;28;20029;-69
2022/07/18 05:18:54;;;;;;;5.63;3.63;;;;;;;;;;4996833;28;20034;-70
2022/07/18 05:21:20;;;;;;;6.63;3.50;;;;;;;;;;4997079;28;20038;-70
2022/07/18 05:23:46;;;;;;;6.43;3.75;;;;;;;;;;4979249;28;20444;-70
2022/07/18 05:26:12;;;;;;;5.15;3.35;;;;;;;;;;4996712;28;20057;-69
2022/07/18 05:28:38;;;;;;;8.30;3.88;;;;;;;;;;4996962;28;20093;-69
2022/07/18 05:31:04;;;;;;;5.18;3.58;;;;;;;;;;4997091;28;20485;-70
2022/07/18 05:33:30;;;;;;;8.35;4.22;;;;;;;;;;4996569;28;20053;-70
2022/07/18 05:35:57;;;;;;;4.97;3.80;;;;;;;;;;4996540;28;20077;-69
2022/07/18 05:38:23;;;;;;;4.80;3.78;;;;;;;;;;4996845;28;20018;-69
2022/07/18 05:40:49;;;;;;;5.70;4.35;;;;;;;;;;4996447;28;20030;-70
2022/07/18 05:43:16;;;;;;;8.63;3.75;;;;;;;;;;4996382;28;20030;-70
2022/07/18 05:45:42;;;;;;;6.20;4.38;;;;;;;;;;4996359;28;20034;-70
2022/07/18 05:48:08;;;;;;;7.43;3.75;;;;;;;;;;4996615;28;20026;-69
2022/07/18 05:50:34;;;;;;;8.30;4.25;;;;;;;;;;4978716;28;20054;-70
2022/07/18 05:53:00;;;;;;;8.65;3.70;;;;;;;;;;4995070;28;20041;-69
2022/07/18 05:55:26;;;;;;;7.00;4.40;;;;;;;;;;4996195;28;20030;-70
2022/07/18 05:57:53;;;;;;;7.72;4.03;;;;;;;;;;4996394;28;20469;-69
2022/07/18 06:00:19;;;;;;;8.55;4.40;;;;;;;;;;4996041;28;20087;-70
2022/07/18 06:02:47;;;;;;;5.55;3.65;;;;;;;;;;4996301;28;20049;-69
2022/07/18 06:05:13;;;;;;;4.70;3.15;;;;;;;;;;4996343;28;20030;-70
2022/07/18 06:07:39;;;;;;;4.57;3.50;;;;;;;;;;4995975;28;20106;-70
2022/07/18 06:10:05;;;;;;;4.95;3.10;;;;;;;;;;4982158;28;20038;-72
2022/07/18 06:12:32;;;;;;;4.88;2.90;;;;;;;;;;4997825;28;20446;-76
2022/07/18 06:14:58;;;;;;;8.32;3.30;;;;;;;;;;4985268;28;20508;-69
2022/07/18 06:17:24;;;;;;;3.50;2.80;;;;;;;;;;4987333;28;20023;-72
2022/07/18 06:19:50;;;;;;;3.95;2.72;;;;;;;;;;5007394;28;20408;-72
2022/07/18 06:22:16;;;;;;;6.05;2.70;;;;;;;;;;5006123;28;20092;-73
2022/07/18 06:24:42;;;;;;;5.70;2.60;;;;;;;;;;5014035;28;20030;-74
2022/07/18 06:27:08;;;;;;;4.07;2.58;;;;;;;;;;4996227;28;20109;-76
2022/07/18 06:29:34;;;;;;;4.32;3.00;;;;;;;;;;4989554;28;20156;-73
2022/07/18 06:32:00;;;;;;;4.43;2.65;;;;;;;;;;4997199;28;20484;-71
2022/07/18 06:34:26;;;;;;;5.70;2.97;;;;;;;;;;5015592;28;20025;-76
2022/07/18 06:36:52;;;;;;;4.63;2.63;;;;;;;;;;4997626;28;20377;-76
2022/07/18 06:39:18;;;;;;;5.65;2.33;;;;;;;;;;4986910;28;20030;-74
2022/07/18 06:41:45;;;;;;;4.43;2.50;;;;;;;;;;4961656;28;20033;-74
2022/07/18 06:44:11;;;;;;;3.72;2.40;;;;;;;;;;4976411;28;20065;-73
2022/07/18 06:46:37;;;;;;;3.47;2.67;;;;;;;;;;4976075;28;20039;-75
2022/07/18 06:49:04;;;;;;;3.05;2.38;;;;;;;;;;4978751;28;20078;-73
2022/07/18 06:51:30;;;;;;;5.18;2.67;;;;;;;;;;4975298;28;20444;-70
2022/07/18 06:53:57;;;;;;;9.85;2.72;;;;;;;;;;4974987;28;20070;-71
2022/07/18 06:56:23;;;;;;;9.00;2.58;;;;;;;;;;4983923;28;20519;-72
2022/07/18 06:58:50;;;;;;;7.00;2.50;;;;;;;;;;4981875;28;20025;-71
2022/07/18 07:01:17;;;;;;;4.28;2.42;;;;;;;;;;4984116;28;20030;-72
2022/07/18 07:03:43;;;;;;;4.10;2.42;;;;;;;;;;4994556;28;20085;-72
2022/07/18 07:06:09;;;;;;;5.22;2.63;;;;;;;;;;4994739;28;20027;-73
2022/07/18 07:08:35;;;;;;;6.28;2.53;;;;;;;;;;4993849;28;20026;-73
2022/07/18 07:11:01;;;;;;;3.72;2.70;;;;;;;;;;4979479;28;20034;-69
2022/07/18 07:13:27;;;;;;;6.47;2.42;;;;;;;;;;4975265;28;20042;-70
2022/07/18 07:15:53;;;;;;;4.38;2.28;;;;;;;;;;4975226;28;20027;-73
2022/07/18 07:18:20;;;;;;;4.53;2.47;;;;;;;;;;4975178;28;20063;-72
2022/07/18 07:20:46;;;;;;;6.32;2.67;;;;;;;;;;4957322;28;20031;-70
2022/07/18 07:23:13;;;;;;;3.22;2.30;;;;;;;;;;4975068;28;20023;-70
2022/07/18 07:25:39;;;;;;;5.32;2.47;;;;;;;;;;4975045;28;20037;-69
2022/07/18 07:28:06;;;;;;;4.68;2.10;;;;;;;;;;4981290;28;20052;-75
2022/07/18 07:30:32;;;;;;;3.58;2.20;;;;;;;;;;4984869;28;20489;-74
2022/07/18 07:32:59;;;;;;;3.30;2.25;;;;;;;;;;4974929;28;20026;-72
2022/07/18 07:35:25;;;;;;;4.72;2.30;;;;;;;;;;4975176;28;20026;-73
2022/07/18 07:37:52;;;;;;;2.85;2.38;;;;;;;;;;4975113;28;20034;-74
2022/07/18 07:40:18;;;;;;;4.50;2.17;;;;;;;;;;4974285;28;20467;-74
2022/07/18 07:42:45;;;;;;;5.80;2.60;;;;;;;;;;4974592;28;20023;-74
2022/07/18 07:45:13;;;;;;;6.75;2.25;;;;;;;;;;4957259;28;20085;-71
2022/07/18 07:47:39;;;;;;;3.87;2.37;;;;;;;;;;4995022;28;20362;-74
2022/07/18 07:50:06;;;;;;;5.63;2.28;;;;;;;;;;4985999;28;20026;-72
2022/07/18 07:52:32;;;;;;;3.17;2.30;;;;;;;;;;4994201;28;20388;-71
2022/07/18 07:54:59;;;;;;;3.30;2.10;;;;;;;;;;4994088;28;20026;-70
2022/07/18 07:57:25;;;;;;;4.43;2.20;;;;;;;;;;4994006;28;20026;-70
2022/07/18 07:59:51;;;;;;;3.78;2.17;;;;;;;;;;4983087;28;20026;-74
2022/07/18 08:02:18;;;;;;;3.63;2.10;;;;;;;;;;4992395;28;20400;-70
2022/07/18 08:04:44;;;;;;;5.65;2.20;;;;;;;;;;4993519;28;20544;-70
2022/07/18 08:07:11;;;;;;;3.50;2.20;;;;;;;;;;4993456;28;20085;-72
2022/07/18 08:09:37;;;;;;;3.92;2.28;;;;;;;;;;4976013;28;20041;-75
2022/07/18 08:12:04;;;;;;;5.38;2.42;;;;;;;;;;4978328;28;20030;-75
2022/07/18 08:14:32;;;;;;;4.55;2.20;;;;;;;;;;4998523;28;20106;-74
2022/07/18 08:16:58;;;;;;;6.43;2.05;;;;;;;;;;4993420;28;20101;-74
2022/07/18 08:19:24;;;;;;;4.13;2.45;;;;;;;;;;4994009;28;20088;-77
2022/07/18 08:21:50;;;;;;;4.07;2.40;;;;;;;;;;4993742;28;20476;-76
2022/07/18 08:24:16;;;;;;;4.78;2.30;;;;;;;;;;4993746;28;20030;-79
2022/07/18 08:26:42;;;;;;;4.57;2.35;;;;;;;;;;4992846;28;20026;-78
2022/07/18 08:29:09;;;;;;;4.72;2.33;;;;;;;;;;4988245;28;20156;-74
2022/07/18 08:31:36;;;;;;;3.90;2.38;;;;;;;;;;4997774;28;20030;-72
2022/07/18 08:34:02;;;;;;;6.97;2.40;;;;;;;;;;4993589;28;20026;-71
2022/07/18 08:36:28;;;;;;;5.95;2.20;;;;;;;;;;4992523;28;20033;-73
2022/07/18 08:38:54;;;;;;;4.97;2.13;;;;;;;;;;4989943;28;20659;-76
2022/07/18 08:41:22;;;;;;;4.70;2.08;;;;;;;;;;4956827;28;20516;-75
2022/07/18 08:43:49;;;;;;;4.28;2.20;;;;;;;;;;4973792;28;20105;-76
2022/07/18 08:46:17;;;;;;;4.15;2.20;;;;;;;;;;4974110;28;20073;-75
2022/07/18 08:48:43;;;;;;;6.85;2.13;;;;;;;;;;4974099;28;20034;-75
2022/07/18 08:51:09;;;;;;;3.70;2.40;;;;;;;;;;4974063;28;20101;-75
2022/07/18 08:53:37;;;;;;;4.22;2.55;;;;;;;;;;4974113;28;20081;-73
2022/07/18 08:56:03;;;;;;;12.52;2.78;;;;;;;;;;4974416;28;20047;-71
2022/07/18 08:58:29;;;;;;;4.50;2.80;;;;;;;;;;4973900;28;20062;-67
2022/07/18 09:00:58;;;;;;;6.13;2.90;;;;;;;;;;4978216;28;20032;-69
2022/07/18 09:03:24;;;;;;;5.60;2.37;;;;;;;;;;4990762;28;20172;-69
2022/07/18 09:06:02;;;;;;;5.65;2.40;;;;;;;;;;4993261;28;20045;-69
2022/07/18 09:08:29;;;;;;;5.18;2.25;;;;;;;;;;4986592;28;20023;-72
2022/07/18 09:10:57;;;;;;;5.75;2.60;;;;;;;;;;4959807;28;20042;-74
2022/07/18 09:13:35;;;;;;;4.60;2.30;;;;;;;;;;4997014;28;20029;-75
2022/07/18 09:16:02;;;;;;;7.35;2.85;;;;;;;;;;4980641;28;20069;-74
2022/07/18 09:18:35;;;;;;;4.35;2.22;;;;;;;;;;4976701;28;20065;-76
2022/07/18 09:21:12;;;;;;;4.18;2.25;;;;;;;;;;4974913;28;20042;-69
2022/07/18 09:23:40;;;;;;;4.13;2.35;;;;;;;;;;4974008;28;20070;-73
2022/07/18 09:26:07;;;;;;;4.90;2.28;;;;;;;;;;4973204;28;20030;-72
2022/07/18 09:29:08;;;;;;;4.55;2.15;;;;;;;;;;4975872;28;20029;-68
2022/07/18 09:31:34;;;;;;;8.88;2.40;;;;;;;;;;4915683;29;20120;-69
2022/07/18 09:34:01;;;;;;;10.80;2.25;;;;;;;;;;4969522;28;20038;-68
2022/07/18 09:36:28;;;;;;;8.27;2.42;;;;;;;;;;4987240;28;20062;-69
2022/07/18 09:38:55;;;;;;;8.00;2.38;;;;;;;;;;4977147;28;20026;-70
2022/07/18 09:41:25;;;;;;;4.95;2.20;;;;;;;;;;4978479;28;20493;-69
2022/07/18 09:43:51;;;;;;;8.23;2.22;;;;;;;;;;4976978;28;20050;-78
2022/07/18 09:46:17;;;;;;;3.53;2.08;;;;;;;;;;4977510;28;20051;-71
2022/07/18 09:48:43;;;;;;;8.48;2.58;;;;;;;;;;4976945;28;20028;-72
2022/07/18 09:51:10;;;;;;;4.97;2.17;;;;;;;;;;4979067;28;20030;-74
2022/07/18 09:53:37;;;;;;;9.88;2.35;;;;;;;;;;4984935;28;20022;-71
2022/07/18 09:56:06;;;;;;;10.60;2.35;;;;;;;;;;4996189;28;20038;-72
2022/07/18 09:58:42;;;;;;;2.92;2.10;;;;;;;;;;4985132;28;20052;-73
2022/07/18 10:01:10;;;;;;;5.05;2.38;;;;;;;;;;4988339;28;20037;-68
2022/07/18 10:03:36;;;;;;;4.80;2.03;;;;;;;;;;4995564;28;20050;-75
2022/07/18 10:06:03;;;;;;;4.35;2.08;;;;;;;;;;4980701;28;20022;-75
2022/07/18 10:08:30;;;;;;;5.22;2.08;;;;;;;;;;4957383;29;20027;-77
2022/07/18 10:10:59;;;;;;;8.40;2.38;;;;;;;;;;4957126;29;20490;-73
2022/07/18 10:13:25;;;;;;;4.13;2.58;;;;;;;;;;4957134;29;20020;-75
2022/07/18 10:15:52;;;;;;;4.78;2.17;;;;;;;;;;4957114;29;20019;-74
2022/07/18 10:18:22;;;;;;;4.40;2.13;;;;;;;;;;4971183;28;20493;-75
2022/07/18 10:20:48;;;;;;;4.90;2.15;;;;;;;;;;4976279;28;20542;-74
2022/07/18 10:23:16;;;;;;;7.10;2.03;;;;;;;;;;4973494;28;20110;-72
2022/07/18 10:25:43;;;;;;;8.00;2.40;;;;;;;;;;4939687;29;20036;-73
2022/07/18 10:28:14;;;;;;;3.60;2.05;;;;;;;;;;4956863;29;20031;-80
2022/07/18 10:30:45;;;;;;;9.60;2.17;;;;;;;;;;4957118;29;20085;-71
2022/07/18 10:33:48;;;;;;;4.90;2.33;;;;;;;;;;4959699;28;20132;-74
2022/07/18 10:36:17;;;;;;;4.95;2.38;;;;;;;;;;4879647;29;20032;-75
2022/07/18 10:39:02;;;;;;;2.67;2.05;;;;;;;;;;4954376;28;20043;-70
2022/07/18 10:41:28;;;;;;;3.15;2.10;;;;;;;;;;4976493;28;20058;-70
2022/07/18 10:43:54;;;;;;;2.05;1.80;;;;;;;;;;4976108;28;20031;-70
2022/07/18 10:46:20;;;;;;;4.03;1.90;;;;;;;;;;4975826;28;20078;-69
2022/07/18 10:48:51;;;;;;;5.38;1.98;;;;;;;;;;4976043;28;20037;-68
2022/07/18 10:51:17;;;;;;;2.35;1.90;;;;;;;;;;4976212;28;20026;-69
2022/07/18 10:53:56;;;;;;;3.20;1.88;;;;;;;;;;4975741;28;20030;-68
2022/07/18 10:56:29;;;;;;;6.22;2.03;;;;;;;;;;4975693;28;20030;-69
2022/07/18 10:58:58;;;;;;;5.10;1.90;;;;;;;;;;4976182;28;20086;-70
2022/07/18 11:01:25;;;;;;;3.97;2.05;;;;;;;;;;4975523;28;20026;-69
2022/07/18 11:04:11;;;;;;;4.53;1.63;;;;;;;;;;4988341;28;20424;-69
2022/07/18 11:07:16;;;;;;;2.85;1.80;;;;;;;;;;4994635;28;20054;-70
2022/07/18 11:09:42;;;;;;;2.22;1.85;;;;;;;;;;4897255;29;20094;-69
2022/07/18 11:12:20;;;;;;;3.33;1.70;;;;;;;;;;4896984;29;20036;-70
2022/07/18 11:15:06;;;;;;;2.75;2.00;;;;;;;;;;4951087;28;20492;-69
2022/07/18 11:17:51;;;;;;;2.35;1.60;;;;;;;;;;4995188;28;20481;-70
2022/07/18 11:20:35;;;;;;;2.33;1.80;;;;;;;;;;4994632;28;20041;-70
2022/07/18 11:23:13;;;;;;;5.05;1.80;;;;;;;;;;4994922;28;20030;-69
2022/07/18 11:25:39;;;;;;;4.05;1.63;;;;;;;;;;4994850;28;20483;-70
2022/07/18 11:28:08;;;;;;;3.17;2.03;;;;;;;;;;4994394;28;20428;-69
2022/07/18 11:30:34;;;;;;;3.33;1.80;;;;;;;;;;4994370;28;20102;-70
2022/07/18 11:33:00;;;;;;;2.92;2.00;;;;;;;;;;4994843;28;20035;-69
2022/07/18 11:35:26;;;;;;;3.13;1.80;;;;;;;;;;4994896;28;20060;-69
2022/07/18 11:37:54;;;;;;;2.60;1.65;;;;;;;;;;4994295;28;20026;-70
2022/07/18 11:40:20;;;;;;;4.53;1.70;;;;;;;;;;4994271;28;20060;-70
2022/07/18 11:42:46;;;;;;;2.63;1.40;;;;;;;;;;4994286;28;20113;-70
2022/07/18 11:45:13;;;;;;;4.55;1.80;;;;;;;;;;4994462;28;20477;-69
2022/07/18 11:47:49;;;;;;;3.25;2.08;;;;;;;;;;4994173;28;20508;-69
2022/07/18 11:50:16;;;;;;;4.75;1.77;;;;;;;;;;4994133;28;20026;-70
2022/07/18 11:52:43;;;;;;;3.05;1.70;;;;;;;;;;4994046;28;20489;-70
2022/07/18 11:55:09;;;;;;;5.05;1.90;;;;;;;;;;4994107;28;20081;-70
2022/07/18 11:57:35;;;;;;;7.15;1.90;;;;;;;;;;4994613;28;20114;-69
2022/07/18 12:00:16;;;;;;;4.03;1.65;;;;;;;;;;4993941;28;20026;-69
2022/07/18 12:03:01;;;;;;;4.22;1.60;;;;;;;;;;4994024;28;20554;-70
2022/07/18 12:05:40;;;;;;;4.68;1.90;;;;;;;;;;4994185;28;20056;-70
2022/07/18 12:08:25;;;;;;;5.07;2.00;;;;;;;;;;4994433;28;20086;-70
2022/07/18 12:11:03;;;;;;;3.75;2.10;;;;;;;;;;4993775;28;20029;-69
2022/07/18 12:13:48;;;;;;;4.63;1.95;;;;;;;;;;4993881;28;20109;-70
2022/07/18 12:16:33;;;;;;;5.80;1.88;;;;;;;;;;4994050;28;20428;-70
2022/07/18 12:19:13;;;;;;;3.42;1.70;;;;;;;;;;4993801;28;20030;-70
2022/07/18 12:21:40;;;;;;;2.67;1.77;;;;;;;;;;4994337;28;20045;-70
2022/07/18 12:24:19;;;;;;;5.47;1.90;;;;;;;;;;4993987;28;20109;-69
2022/07/18 12:26:46;;;;;;;6.47;1.83;;;;;;;;;;4993950;28;20065;-69
2022/07/18 12:29:12;;;;;;;2.17;1.60;;;;;;;;;;4993987;28;20109;-69
2022/07/18 12:31:39;;;;;;;3.92;1.90;;;;;;;;;;4994389;28;20058;-69
2022/07/18 12:34:15;;;;;;;3.78;1.80;;;;;;;;;;4993685;28;20030;-69
2022/07/18 12:36:54;;;;;;;6.70;1.75;;;;;;;;;;4993586;28;20142;-71
2022/07/18 12:39:30;;;;;;;3.90;1.80;;;;;;;;;;4993592;28;20037;-69
2022/07/18 12:41:56;;;;;;;4.88;2.00;;;;;;;;;;4994121;28;20105;-70
2022/07/18 12:44:22;;;;;;;8.63;2.25;;;;;;;;;;4993578;28;20109;-70
2022/07/18 12:46:48;;;;;;;5.45;2.17;;;;;;;;;;4993539;28;20058;-70
2022/07/18 12:49:14;;;;;;;4.18;2.00;;;;;;;;;;4993546;28;20030;-70
2022/07/18 12:51:40;;;;;;;3.63;1.95;;;;;;;;;;4993429;28;20030;-69
2022/07/18 12:54:06;;;;;;;5.88;1.80;;;;;;;;;;4993718;28;20053;-70
2022/07/18 12:56:32;;;;;;;3.03;2.00;;;;;;;;;;4993714;28;20069;-70
2022/07/18 12:58:58;;;;;;;4.40;2.00;;;;;;;;;;4993385;28;20027;-69
2022/07/18 13:01:24;;;;;;;4.43;1.90;;;;;;;;;;4993324;28;20028;-70
2022/07/18 13:03:50;;;;;;;4.60;2.15;;;;;;;;;;4996354;28;20140;-70
2022/07/18 13:06:17;;;;;;;4.43;2.22;;;;;;;;;;4997152;28;20081;-69
2022/07/18 13:08:43;;;;;;;5.90;2.17;;;;;;;;;;4997119;28;20492;-70
2022/07/18 13:11:09;;;;;;;7.57;2.30;;;;;;;;;;4996913;28;20076;-70
2022/07/18 13:13:35;;;;;;;5.45;2.60;;;;;;;;;;4997023;28;20033;-70
2022/07/18 13:16:01;;;;;;;7.18;2.60;;;;;;;;;;4996956;28;20018;-70
2022/07/18 13:18:27;;;;;;;3.67;2.30;;;;;;;;;;4996876;28;20026;-70
2022/07/18 13:20:53;;;;;;;5.07;2.45;;;;;;;;;;4997122;28;20125;-70
2022/07/18 13:23:19;;;;;;;6.95;2.75;;;;;;;;;;4996833;28;20030;-71
2022/07/18 13:25:45;;;;;;;7.15;2.28;;;;;;;;;;4997023;28;20026;-70
2022/07/18 13:28:11;;;;;;;11.55;2.95;;;;;;;;;;4996694;28;20030;-70
2022/07/18 13:30:37;;;;;;;7.35;2.35;;;;;;;;;;4996604;28;20026;-69
2022/07/18 13:33:07;;;;;;;5.60;2.65;;;;;;;;;;4997184;28;20037;-71
2022/07/18 13:35:33;;;;;;;6.30;2.70;;;;;;;;;;4996833;28;20388;-70
2022/07/18 13:37:59;;;;;;;7.10;2.60;;;;;;;;;;4996525;28;20476;-70
2022/07/18 13:40:25;;;;;;;5.88;2.95;;;;;;;;;;4996517;28;20023;-70
2022/07/18 13:42:51;;;;;;;7.00;3.53;;;;;;;;;;4996448;28;20033;-70
2022/07/18 13:45:17;;;;;;;9.23;3.10;;;;;;;;;;4996701;28;20097;-70
2022/07/18 13:47:43;;;;;;;5.22;2.70;;;;;;;;;;4978857;28;20029;-70
2022/07/18 13:50:10;;;;;;;7.90;2.85;;;;;;;;;;4978842;28;20485;-69
2022/07/18 13:52:36;;;;;;;7.50;2.72;;;;;;;;;;4996243;28;20057;-70
2022/07/18 13:55:03;;;;;;;9.00;3.13;;;;;;;;;;4996265;28;20030;-70
2022/07/18 13:57:29;;;;;;;6.95;2.90;;;;;;;;;;4996272;28;20373;-70
2022/07/18 13:59:55;;;;;;;11.25;3.83;;;;;;;;;;4996133;28;20019;-70
2022/07/18 14:02:21;;;;;;;6.80;2.83;;;;;;;;;;4996166;28;20110;-69
2022/07/18 14:04:47;;;;;;;6.38;3.78;;;;;;;;;;4996378;28;20026;-70
2022/07/18 14:07:17;;;;;;;6.70;3.05;;;;;;;;;;4996021;28;20022;-70
2022/07/18 14:09:43;;;;;;;16.08;3.35;;;;;;;;;;4996522;28;20033;-70
2022/07/18 14:12:09;;;;;;;8.93;3.17;;;;;;;;;;4996423;28;20033;-69
2022/07/18 14:14:35;;;;;;;5.78;3.17;;;;;;;;;;4995171;28;20030;-69
2022/07/18 14:17:01;;;;;;;7.47;3.30;;;;;;;;;;4995852;28;20476;-69
2022/07/18 14:19:27;;;;;;;8.65;3.38;;;;;;;;;;4996066;28;20029;-70
2022/07/18 14:21:53;;;;;;;6.50;3.28;;;;;;;;;;4995762;28;20026;-70
2022/07/18 14:24:19;;;;;;;6.07;3.47;;;;;;;;;;4996001;28;20085;-70
2022/07/18 14:26:45;;;;;;;5.68;3.03;;;;;;;;;;4995637;28;20030;-70
2022/07/18 14:29:11;;;;;;;7.40;3.47;;;;;;;;;;4995617;28;20036;-69
2022/07/18 14:31:37;;;;;;;7.15;3.10;;;;;;;;;;4996046;28;20022;-70
2022/07/18 14:34:03;;;;;;;8.60;3.22;;;;;;;;;;4996087;28;20102;-69
2022/07/18 14:36:30;;;;;;;7.35;3.17;;;;;;;;;;4995460;28;20023;-71
2022/07/18 14:38:56;;;;;;;9.57;3.75;;;;;;;;;;4995407;28;20037;-70
2022/07/18 14:41:22;;;;;;;11.57;3.70;;;;;;;;;;4995914;28;20101;-70
2022/07/18 14:43:48;;;;;;;10.57;3.20;;;;;;;;;;4995892;28;20026;-70
2022/07/18 14:46:14;;;;;;;9.52;3.50;;;;;;;;;;4995547;28;20037;-70
2022/07/18 14:48:40;;;;;;;9.70;3.50;;;;;;;;;;4995278;28;20045;-70